Time;durP1;ratioP1;P1;durP2;ratioP2;P2;SDS_P1;SDS_P2;PMS_P1;PMS_P2;Temp;Humidity;BMP_temperature;BMP_pressure;BME280_temperature;BME280_humidity;BME280_pressure;Samples;Min_cycle;Max_cycle;Signal;HPM_P1;HPM_P2
2021/09/23 00:00:25;;;;;;;;;;;8.60;99.90;;;;;;5090829;28;19930;-73
2021/09/23 00:05:31;;;;;;;;;;;8.60;99.90;;;;;;5109463;28;19967;-73
2021/09/23 00:08:03;;;;;;;;;;;8.60;99.90;;;;;;5109115;28;20344;-73
2021/09/23 00:10:36;;;;;;;;;;;8.50;99.90;;;;;;5092405;28;20084;-73
2021/09/23 00:13:08;;;;;;;;;;;8.50;99.90;;;;;;5092541;28;19974;-73
2021/09/23 00:15:35;;;;;;;;;;;8.50;99.90;;;;;;5093516;28;19924;-74
2021/09/23 00:18:09;;;;;;;;;;;8.40;99.90;;;;;;5109504;28;19962;-73
2021/09/23 00:20:43;;;;;;;;;;;8.40;99.90;;;;;;5092350;28;19924;-73
2021/09/23 00:23:09;;;;;;;;;;;8.40;99.90;;;;;;5109306;28;19928;-73
2021/09/23 00:25:37;;;;;;;;;;;8.40;99.90;;;;;;5091913;28;19931;-73
2021/09/23 00:28:04;;;;;;;;;;;8.40;99.90;;;;;;5092238;28;19923;-73
2021/09/23 00:30:36;;;;;;;;;;;8.40;99.90;;;;;;5109162;28;20166;-73
2021/09/23 00:33:03;;;;;;;;;;;8.40;99.90;;;;;;5109266;28;19924;-73
2021/09/23 00:35:30;;;;;;;;;;;8.30;99.90;;;;;;5091640;28;20378;-73
2021/09/23 00:37:58;;;;;;;;;;;8.30;99.90;;;;;;5092024;28;20280;-73
2021/09/23 00:40:30;;;;;;;;;;;8.30;99.90;;;;;;5091991;28;19924;-73
2021/09/23 00:43:04;;;;;;;;;;;8.30;99.90;;;;;;5109078;28;19924;-73
2021/09/23 00:45:36;;;;;;;;;;;8.40;99.90;;;;;;5091560;28;19938;-73
2021/09/23 00:48:03;;;;;;;;;;;8.30;99.90;;;;;;5091889;28;20100;-73
2021/09/23 00:50:35;;;;;;;;;;;8.30;99.90;;;;;;5093117;28;19924;-73
2021/09/23 00:53:09;;;;;;;;;;;8.30;99.90;;;;;;5108828;28;19934;-73
2021/09/23 00:55:37;;;;;;;;;;;8.20;99.90;;;;;;5108588;28;20298;-73
2021/09/23 00:58:08;;;;;;;;;;;8.20;99.90;;;;;;5092956;28;20015;-73
2021/09/23 01:00:44;;;;;;;;;;;8.20;99.90;;;;;;5091003;28;19924;-73
2021/09/23 01:03:18;;;;;;;;;;;8.20;99.90;;;;;;5091031;28;20345;-73
2021/09/23 01:05:55;;;;;;;;;;;8.20;99.90;;;;;;5089884;28;19981;-73
2021/09/23 01:08:27;;;;;;;;;;;8.10;99.90;;;;;;5090884;28;19924;-72
2021/09/23 01:10:55;;;;;;;;;;;8.10;99.90;;;;;;5107398;28;19932;-73
2021/09/23 01:13:27;;;;;;;;;;;8.10;99.90;;;;;;5107802;28;19957;-73
2021/09/23 01:15:59;;;;;;;;;;;8.00;99.90;;;;;;5090305;28;19931;-73
2021/09/23 01:18:52;;;;;;;;;;;8.00;99.90;;;;;;5055564;28;19928;-73
2021/09/23 01:21:21;;;;;;;;;;;8.00;99.90;;;;;;5074678;28;19925;-72
2021/09/23 01:23:48;;;;;;;;;;;8.00;99.90;;;;;;5091185;28;19928;-73
2021/09/23 01:26:26;;;;;;;;;;;7.90;99.90;;;;;;5091025;28;20047;-72
2021/09/23 01:29:08;;;;;;;;;;;7.90;99.90;;;;;;5088973;28;20379;-72
2021/09/23 01:31:43;;;;;;;;;;;7.90;99.90;;;;;;5073663;28;19924;-73
2021/09/23 01:34:15;;;;;;;;;;;7.80;99.90;;;;;;5073319;28;19924;-73
2021/09/23 01:36:42;;;;;;;;;;;7.70;99.90;;;;;;5073696;28;20018;-73
2021/09/23 01:39:17;;;;;;;;;;;7.70;99.90;;;;;;5090521;28;19924;-73
2021/09/23 01:41:52;;;;;;;;;;;7.70;99.90;;;;;;5073689;28;19924;-73
2021/09/23 01:44:24;;;;;;;;;;;7.70;99.90;;;;;;5090547;28;19966;-73
2021/09/23 01:46:59;;;;;;;;;;;7.70;99.90;;;;;;5089817;28;20295;-73
2021/09/23 01:49:31;;;;;;;;;;;7.70;99.90;;;;;;5074129;28;19932;-73
2021/09/23 01:52:02;;;;;;;;;;;7.70;99.90;;;;;;5090075;28;19989;-73
2021/09/23 01:54:30;;;;;;;;;;;7.70;99.90;;;;;;5073624;28;19924;-73
2021/09/23 01:56:57;;;;;;;;;;;7.70;99.90;;;;;;5090882;28;19924;-73
2021/09/23 01:59:24;;;;;;;;;;;7.60;99.90;;;;;;5090745;28;19924;-72
2021/09/23 02:01:58;;;;;;;;;;;7.60;99.90;;;;;;5090909;28;19931;-73
2021/09/23 02:04:30;;;;;;;;;;;7.60;99.90;;;;;;5073433;28;19931;-73
2021/09/23 02:07:06;;;;;;;;;;;7.60;99.90;;;;;;5089862;28;20382;-72
2021/09/23 02:09:44;;;;;;;;;;;7.60;99.90;;;;;;5088819;28;19950;-74
2021/09/23 02:12:20;;;;;;;;;;;7.50;99.90;;;;;;5073909;28;19930;-72
2021/09/23 02:14:52;;;;;;;;;;;7.50;99.90;;;;;;5073498;28;20331;-73
2021/09/23 02:17:24;;;;;;;;;;;7.50;99.90;;;;;;5089774;28;19931;-72
2021/09/23 02:19:55;;;;;;;;;;;7.50;99.90;;;;;;5090649;28;19953;-72
2021/09/23 02:22:23;;;;;;;;;;;7.40;99.90;;;;;;5077453;28;19978;-72
2021/09/23 02:24:52;;;;;;;;;;;7.30;99.90;;;;;;5094308;28;20429;-74
2021/09/23 02:27:23;;;;;;;;;;;7.30;99.90;;;;;;5077836;28;20425;-72
2021/09/23 02:29:55;;;;;;;;;;;7.20;99.90;;;;;;5077607;28;19981;-73
2021/09/23 02:32:22;;;;;;;;;;;7.20;99.90;;;;;;5094344;28;19947;-73
2021/09/23 02:34:49;;;;;;;;;;;7.10;99.90;;;;;;5094080;28;19974;-72
2021/09/23 02:37:20;;;;;;;;;;;7.20;99.90;;;;;;5085713;28;19924;-73
2021/09/23 02:39:47;;;;;;;;;;;7.20;99.90;;;;;;5086418;28;19924;-72
2021/09/23 02:42:20;;;;;;;;;;;7.50;99.90;;;;;;5096395;28;19928;-72
2021/09/23 02:44:52;;;;;;;;;;;8.00;99.90;;;;;;5086244;28;19924;-73
2021/09/23 02:47:19;;;;;;;;;;;8.50;99.90;;;;;;5085175;28;19923;-72
2021/09/23 02:49:46;;;;;;;;;;;8.90;99.90;;;;;;5096073;28;19924;-72
2021/09/23 02:52:18;;;;;;;;;;;8.70;99.90;;;;;;5080252;28;19973;-73
2021/09/23 02:54:50;;;;;;;;;;;8.40;99.90;;;;;;5094966;28;19931;-73
2021/09/23 02:57:16;;;;;;;;;;;8.20;99.90;;;;;;5096937;28;19970;-72
2021/09/23 02:59:48;;;;;;;;;;;7.90;99.90;;;;;;5079765;28;19931;-73
2021/09/23 03:02:20;;;;;;;;;;;7.60;99.90;;;;;;5080735;28;20295;-73
2021/09/23 03:04:52;;;;;;;;;;;7.40;99.90;;;;;;5080901;28;20061;-74
2021/09/23 03:07:19;;;;;;;;;;;7.30;99.90;;;;;;5097275;28;19924;-73
2021/09/23 03:09:50;;;;;;;;;;;7.10;99.90;;;;;;5097051;28;19930;-73
2021/09/23 03:12:19;;;;;;;;;;;7.00;99.90;;;;;;5097350;28;19938;-73
2021/09/23 03:14:51;;;;;;;;;;;6.90;99.90;;;;;;5080677;28;19946;-73
2021/09/23 03:17:23;;;;;;;;;;;6.90;99.90;;;;;;5080891;28;19924;-74
2021/09/23 03:19:55;;;;;;;;;;;6.90;99.90;;;;;;5080891;28;20371;-73
2021/09/23 03:22:21;;;;;;;;;;;6.80;99.90;;;;;;5080191;28;19928;-73
2021/09/23 03:24:53;;;;;;;;;;;6.70;99.90;;;;;;5114788;28;19955;-72
2021/09/23 03:27:21;;;;;;;;;;;6.70;99.90;;;;;;5080153;28;19924;-73
2021/09/23 03:29:53;;;;;;;;;;;6.60;99.90;;;;;;5080508;28;19924;-73
2021/09/23 03:32:24;;;;;;;;;;;6.50;99.90;;;;;;5079520;28;19924;-73
2021/09/23 03:34:53;;;;;;;;;;;6.50;99.90;;;;;;5096440;28;19930;-73
2021/09/23 03:37:19;;;;;;;;;;;6.50;99.90;;;;;;5079901;28;19924;-72
2021/09/23 03:39:46;;;;;;;;;;;6.50;99.90;;;;;;5079861;28;20015;-72
2021/09/23 03:42:13;;;;;;;;;;;6.50;99.90;;;;;;5096624;28;20287;-73
2021/09/23 03:44:45;;;;;;;;;;;6.50;99.90;;;;;;5114535;28;20392;-72
2021/09/23 03:47:16;;;;;;;;;;;6.50;99.90;;;;;;5097300;28;19969;-72
2021/09/23 03:49:48;;;;;;;;;;;6.50;99.90;;;;;;5096199;28;20341;-74
2021/09/23 03:52:15;;;;;;;;;;;6.50;99.90;;;;;;5095752;28;20469;-73
2021/09/23 03:54:47;;;;;;;;;;;6.50;99.90;;;;;;5096538;28;19924;-72
2021/09/23 03:57:18;;;;;;;;;;;6.40;99.90;;;;;;5096518;28;19923;-73
2021/09/23 03:59:50;;;;;;;;;;;6.40;99.90;;;;;;5079424;28;20448;-72
2021/09/23 04:02:22;;;;;;;;;;;6.30;99.90;;;;;;5079577;28;19928;-72
2021/09/23 04:04:54;;;;;;;;;;;6.20;99.90;;;;;;5079138;28;19923;-73
2021/09/23 04:07:21;;;;;;;;;;;6.10;99.90;;;;;;5113873;28;20291;-73
2021/09/23 04:09:53;;;;;;;;;;;6.10;99.90;;;;;;5095438;28;19930;-73
2021/09/23 04:12:20;;;;;;;;;;;6.10;99.90;;;;;;5095248;28;19951;-72
2021/09/23 04:14:51;;;;;;;;;;;6.10;99.90;;;;;;5078658;28;20398;-72
2021/09/23 04:17:23;;;;;;;;;;;6.10;99.90;;;;;;5097720;28;20412;-71
2021/09/23 04:19:55;;;;;;;;;;;6.10;99.90;;;;;;5094680;28;19924;-72
2021/09/23 04:22:27;;;;;;;;;;;6.10;99.90;;;;;;5094726;28;20031;-74
2021/09/23 04:24:59;;;;;;;;;;;6.10;99.90;;;;;;5112576;28;19923;-74
2021/09/23 04:27:31;;;;;;;;;;;6.10;99.90;;;;;;5094610;28;19923;-73
2021/09/23 04:30:03;;;;;;;;;;;6.10;99.90;;;;;;5078067;28;20405;-73
2021/09/23 04:32:30;;;;;;;;;;;6.10;99.90;;;;;;5094240;28;19935;-72
2021/09/23 04:35:02;;;;;;;;;;;6.10;99.90;;;;;;5095581;28;19966;-72
2021/09/23 04:37:30;;;;;;;;;;;6.10;99.90;;;;;;5078398;28;19928;-73
2021/09/23 04:40:02;;;;;;;;;;;6.10;99.90;;;;;;5095085;28;20549;-72
2021/09/23 04:42:35;;;;;;;;;;;6.10;99.90;;;;;;5078998;28;20441;-72
2021/09/23 04:45:02;;;;;;;;;;;6.10;99.90;;;;;;5077582;28;19945;-72
2021/09/23 04:47:40;;;;;;;;;;;6.10;99.90;;;;;;5094650;28;19928;-72
2021/09/23 04:50:12;;;;;;;;;;;6.10;99.90;;;;;;5078803;28;19923;-72
2021/09/23 04:52:39;;;;;;;;;;;6.20;99.90;;;;;;5086358;28;19924;-73
2021/09/23 04:55:06;;;;;;;;;;;6.20;99.90;;;;;;5094314;28;20015;-72
2021/09/23 04:57:39;;;;;;;;;;;6.20;99.90;;;;;;5078570;28;19956;-72
2021/09/23 05:00:07;;;;;;;;;;;6.10;99.90;;;;;;5094308;28;19924;-71
2021/09/23 05:02:49;;;;;;;;;;;5.90;99.90;;;;;;5079757;28;19969;-73
2021/09/23 05:05:16;;;;;;;;;;;5.90;99.90;;;;;;5077218;28;19923;-72
2021/09/23 05:07:48;;;;;;;;;;;5.80;99.90;;;;;;5094651;28;20340;-72
2021/09/23 05:10:15;;;;;;;;;;;5.90;99.90;;;;;;5094679;28;19938;-72
2021/09/23 05:12:44;;;;;;;;;;;5.80;99.90;;;;;;5094849;28;20687;-72
2021/09/23 05:15:12;;;;;;;;;;;5.90;99.90;;;;;;5093939;28;19983;-72
2021/09/23 05:17:46;;;;;;;;;;;5.80;99.90;;;;;;5094297;28;19924;-72
2021/09/23 05:20:18;;;;;;;;;;;5.70;99.90;;;;;;5078078;28;19924;-72
2021/09/23 05:22:45;;;;;;;;;;;5.60;99.90;;;;;;5094177;28;19924;-72
2021/09/23 05:25:18;;;;;;;;;;;5.60;99.90;;;;;;5094901;28;20297;-72
2021/09/23 05:27:50;;;;;;;;;;;5.60;99.90;;;;;;5094222;28;19993;-72
2021/09/23 05:30:22;;;;;;;;;;;5.60;99.90;;;;;;5106122;28;19928;-72
2021/09/23 05:32:54;;;;;;;;;;;5.70;99.90;;;;;;5077033;28;19955;-72
2021/09/23 05:35:26;;;;;;;;;;;5.70;99.90;;;;;;5094140;27;19973;-72
2021/09/23 05:37:58;;;;;;;;;;;5.80;99.90;;;;;;5132065;27;19927;-73
2021/09/23 05:40:30;;;;;;;;;;;5.90;99.90;;;;;;5113822;27;19928;-73
2021/09/23 05:43:02;;;;;;;;;;;5.90;99.90;;;;;;5132014;27;20010;-73
2021/09/23 05:45:28;;;;;;;;;;;6.00;99.90;;;;;;5113763;28;19923;-73
2021/09/23 05:47:55;;;;;;;;;;;6.00;99.90;;;;;;5132446;27;19923;-72
2021/09/23 05:50:22;;;;;;;;;;;6.10;99.90;;;;;;5114543;28;19928;-73
2021/09/23 05:52:57;;;;;;;;;;;6.10;99.90;;;;;;5098772;28;20396;-73
2021/09/23 05:55:24;;;;;;;;;;;6.10;99.90;;;;;;5130919;27;19969;-73
2021/09/23 05:57:56;;;;;;;;;;;6.00;99.90;;;;;;5098085;28;19984;-73
2021/09/23 06:00:27;;;;;;;;;;;6.10;99.90;;;;;;5098041;28;20028;-72
2021/09/23 06:02:54;;;;;;;;;;;6.10;99.90;;;;;;5132651;28;19931;-73
2021/09/23 06:05:21;;;;;;;;;;;6.10;99.90;;;;;;5096873;28;19962;-73
2021/09/23 06:07:52;;;;;;;;;;;6.20;99.90;;;;;;5114160;28;19949;-72
2021/09/23 06:10:20;;;;;;;;;;;6.50;99.90;;;;;;5114086;28;19984;-74
2021/09/23 06:12:52;;;;;;;;;;;6.60;99.90;;;;;;5098348;28;20301;-73
2021/09/23 06:15:24;;;;;;;;;;;6.60;99.90;;;;;;5114052;28;20406;-74
2021/09/23 06:17:50;;;;;;;;;;;6.50;99.90;;;;;;5097419;27;19946;-73
2021/09/23 06:20:23;;;;;;;;;;;6.50;99.90;;;;;;5132814;28;19992;-73
2021/09/23 06:22:55;;;;;;;;;;;6.40;99.90;;;;;;5114464;28;19924;-73
2021/09/23 06:25:27;;;;;;;;;;;6.40;99.90;;;;;;5114987;28;19953;-73
2021/09/23 06:27:54;;;;;;;;;;;6.30;99.90;;;;;;5132818;28;19923;-73
2021/09/23 06:30:25;;;;;;;;;;;6.30;99.90;;;;;;5098141;28;19923;-73
2021/09/23 06:32:52;;;;;;;;;;;6.30;99.90;;;;;;5114303;28;19924;-73
2021/09/23 06:35:19;;;;;;;;;;;6.40;99.90;;;;;;5097032;28;20313;-73
2021/09/23 06:37:50;;;;;;;;;;;6.40;99.90;;;;;;5097998;28;19924;-73
2021/09/23 06:40:17;;;;;;;;;;;6.50;99.90;;;;;;5114179;28;19924;-73
2021/09/23 06:42:49;;;;;;;;;;;6.50;99.90;;;;;;5132521;27;19923;-73
2021/09/23 06:45:21;;;;;;;;;;;6.60;99.90;;;;;;5113984;28;19924;-73
2021/09/23 06:47:48;;;;;;;;;;;6.70;99.90;;;;;;5114400;28;19969;-74
2021/09/23 06:50:14;;;;;;;;;;;6.80;99.90;;;;;;5132426;28;19969;-73
2021/09/23 06:52:46;;;;;;;;;;;6.80;99.90;;;;;;5098153;28;19924;-73
2021/09/23 06:55:18;;;;;;;;;;;6.90;99.90;;;;;;5132587;27;19964;-74
2021/09/23 06:57:46;;;;;;;;;;;6.90;99.90;;;;;;5114560;28;19927;-73
2021/09/23 07:00:31;;;;;;;;;;;7.00;99.90;;;;;;5117585;28;19934;-73
2021/09/23 07:03:32;;;;;;;;;;;7.00;99.90;;;;;;5101857;28;19923;-73
2021/09/23 07:06:11;;;;;;;;;;;7.00;99.90;;;;;;5113963;27;19923;-73
2021/09/23 07:08:43;;;;;;;;;;;6.90;99.90;;;;;;5117880;27;20010;-73
2021/09/23 07:11:14;;;;;;;;;;;7.00;99.90;;;;;;5117697;27;19923;-73
2021/09/23 07:13:41;;;;;;;;;;;7.00;99.90;;;;;;5117624;27;19928;-73
2021/09/23 07:16:08;;;;;;;;;;;7.00;99.90;;;;;;5117430;27;20382;-73
2021/09/23 07:18:43;;;;;;;;;;;7.10;99.90;;;;;;5135790;27;19923;-73
2021/09/23 07:21:09;;;;;;;;;;;7.20;99.90;;;;;;5100440;27;20059;-73
2021/09/23 07:23:41;;;;;;;;;;;7.30;99.90;;;;;;5101142;27;19976;-73
2021/09/23 07:26:08;;;;;;;;;;;7.40;99.90;;;;;;5100088;27;19923;-75
2021/09/23 07:28:35;;;;;;;;;;;7.60;99.90;;;;;;5117134;27;19972;-73
2021/09/23 07:31:06;;;;;;;;;;;7.60;99.90;;;;;;5117208;27;19923;-73
2021/09/23 07:33:38;;;;;;;;;;;7.60;99.90;;;;;;5101016;27;20015;-73
2021/09/23 07:36:10;;;;;;;;;;;7.70;99.90;;;;;;5117876;27;19963;-73
2021/09/23 07:38:42;;;;;;;;;;;7.80;99.90;;;;;;5100876;27;20023;-73
2021/09/23 07:41:13;;;;;;;;;;;7.80;99.90;;;;;;5100708;27;19967;-73
2021/09/23 07:43:45;;;;;;;;;;;7.80;99.90;;;;;;5100919;27;19923;-74
2021/09/23 07:46:17;;;;;;;;;;;7.90;99.90;;;;;;5116841;27;19932;-72
2021/09/23 07:48:47;;;;;;;;;;;8.00;99.90;;;;;;5100155;27;19963;-72
2021/09/23 07:51:13;;;;;;;;;;;8.00;99.90;;;;;;5135118;27;19923;-74
2021/09/23 07:53:45;;;;;;;;;;;8.20;99.90;;;;;;5100603;27;19923;-73
2021/09/23 07:56:12;;;;;;;;;;;8.30;99.90;;;;;;5099735;27;19946;-73
2021/09/23 07:58:45;;;;;;;;;;;8.50;99.90;;;;;;5116686;27;19930;-73
2021/09/23 08:01:17;;;;;;;;;;;8.70;99.90;;;;;;5100490;27;19974;-73
2021/09/23 08:03:46;;;;;;;;;;;8.90;99.90;;;;;;5116673;27;19924;-73
2021/09/23 08:06:12;;;;;;;;;;;9.10;99.90;;;;;;5099332;27;19927;-73
2021/09/23 08:08:39;;;;;;;;;;;9.20;99.90;;;;;;5116541;27;19927;-74
2021/09/23 08:11:11;;;;;;;;;;;9.40;99.90;;;;;;5116468;27;19927;-74
2021/09/23 08:13:40;;;;;;;;;;;9.50;99.90;;;;;;5116329;27;19923;-74
2021/09/23 08:16:07;;;;;;;;;;;9.70;99.90;;;;;;5116276;27;19924;-73
2021/09/23 08:18:53;;;;;;;;;;;9.80;99.90;;;;;;5118661;27;20449;-74
2021/09/23 08:21:38;;;;;;;;;;;10.00;99.90;;;;;;5134932;27;20434;-72
2021/09/23 08:24:10;;;;;;;;;;;10.20;99.90;;;;;;5099959;27;19930;-73
2021/09/23 08:26:43;;;;;;;;;;;10.20;99.90;;;;;;5099974;27;20312;-73
2021/09/23 08:29:15;;;;;;;;;;;10.30;99.90;;;;;;5116102;27;20001;-74
2021/09/23 08:31:46;;;;;;;;;;;10.40;99.90;;;;;;5099886;27;20408;-73
2021/09/23 08:34:16;;;;;;;;;;;10.50;99.90;;;;;;5115299;27;20406;-73
2021/09/23 08:36:44;;;;;;;;;;;10.60;99.90;;;;;;5099518;27;19928;-73
2021/09/23 08:39:11;;;;;;;;;;;10.70;99.90;;;;;;5116034;27;20370;-73
2021/09/23 08:41:43;;;;;;;;;;;10.90;99.90;;;;;;5116115;27;20390;-73
2021/09/23 08:44:17;;;;;;;;;;;11.00;99.90;;;;;;5109489;28;20040;-74
2021/09/23 08:46:44;;;;;;;;;;;11.10;99.90;;;;;;5095272;28;20397;-73
2021/09/23 08:49:16;;;;;;;;;;;11.20;99.90;;;;;;5095185;28;20299;-73
2021/09/23 08:51:48;;;;;;;;;;;11.40;99.90;;;;;;5077731;28;19924;-73
2021/09/23 08:54:17;;;;;;;;;;;11.40;99.90;;;;;;5077985;28;20287;-74
2021/09/23 08:56:45;;;;;;;;;;;11.60;99.90;;;;;;5095321;28;19938;-73
2021/09/23 08:59:17;;;;;;;;;;;11.70;99.90;;;;;;5095039;28;19924;-73
2021/09/23 09:01:49;;;;;;;;;;;11.90;99.90;;;;;;5095347;28;20285;-74
2021/09/23 09:04:34;;;;;;;;;;;12.00;99.90;;;;;;5094519;28;19950;-74
2021/09/23 09:07:26;;;;;;;;;;;12.10;99.90;;;;;;5087843;28;19928;-74
2021/09/23 09:10:16;;;;;;;;;;;12.20;99.90;;;;;;5075091;28;19931;-74
2021/09/23 09:12:48;;;;;;;;;;;12.40;99.90;;;;;;5078980;28;19997;-73
2021/09/23 09:15:17;;;;;;;;;;;12.60;99.90;;;;;;5094611;28;19924;-73
2021/09/23 09:17:50;;;;;;;;;;;12.70;99.90;;;;;;5094890;28;19930;-74
2021/09/23 09:20:22;;;;;;;;;;;12.90;99.90;;;;;;5078580;28;19927;-73
2021/09/23 09:23:03;;;;;;;;;;;13.10;99.90;;;;;;5094877;28;20310;-73
2021/09/23 09:25:30;;;;;;;;;;;13.20;99.90;;;;;;5094402;28;19931;-73
2021/09/23 09:27:58;;;;;;;;;;;13.30;99.90;;;;;;5094810;28;19923;-73
2021/09/23 09:30:25;;;;;;;;;;;13.40;99.90;;;;;;5077004;28;19938;-73
2021/09/23 09:32:57;;;;;;;;;;;13.50;99.90;;;;;;5094619;28;19924;-73
2021/09/23 09:35:35;;;;;;;;;;;13.70;99.90;;;;;;5094205;28;19928;-73
2021/09/23 09:38:09;;;;;;;;;;;13.90;99.90;;;;;;5094284;28;20064;-73
2021/09/23 09:40:38;;;;;;;;;;;14.00;99.90;;;;;;5094432;28;20309;-73
2021/09/23 09:43:13;;;;;;;;;;;14.20;99.90;;;;;;5078650;28;19930;-73
2021/09/23 09:45:48;;;;;;;;;;;14.30;99.90;;;;;;5094380;28;19951;-73
2021/09/23 09:48:15;;;;;;;;;;;14.40;99.90;;;;;;5077687;28;19992;-73
2021/09/23 09:50:46;;;;;;;;;;;14.50;99.90;;;;;;5094493;28;19924;-73
2021/09/23 09:53:13;;;;;;;;;;;14.60;99.90;;;;;;5094363;28;19927;-74
2021/09/23 09:55:47;;;;;;;;;;;14.60;99.90;;;;;;5094002;28;19923;-73
2021/09/23 09:58:21;;;;;;;;;;;14.80;99.90;;;;;;5078559;28;19923;-73
2021/09/23 10:00:48;;;;;;;;;;;14.90;99.90;;;;;;5094182;28;19923;-73
2021/09/23 10:03:20;;;;;;;;;;;15.00;99.90;;;;;;5078084;28;20018;-74
2021/09/23 10:05:53;;;;;;;;;;;15.10;99.90;;;;;;5112108;28;19939;-73
2021/09/23 10:08:25;;;;;;;;;;;15.20;99.90;;;;;;5094305;28;19924;-73
2021/09/23 10:10:57;;;;;;;;;;;15.40;99.90;;;;;;5112413;28;20389;-73
2021/09/23 10:13:24;;;;;;;;;;;15.50;99.90;;;;;;5077335;28;19924;-73
2021/09/23 10:15:52;;;;;;;;;;;15.70;99.90;;;;;;5102600;28;20453;-73
2021/09/23 10:18:25;;;;;;;;;;;15.80;99.90;;;;;;5110913;28;20023;-74
2021/09/23 10:20:58;;;;;;;;;;;15.90;99.90;;;;;;5077900;28;20018;-73
2021/09/23 10:23:39;;;;;;;;;;;16.10;99.90;;;;;;5078024;28;19924;-73
2021/09/23 10:26:10;;;;;;;;;;;16.30;99.90;;;;;;5076874;28;19928;-74
2021/09/23 10:28:45;;;;;;;;;;;16.50;99.90;;;;;;5077928;28;19923;-74
2021/09/23 10:31:21;;;;;;;;;;;16.70;99.90;;;;;;5103828;28;19923;-73
2021/09/23 10:33:53;;;;;;;;;;;16.80;99.90;;;;;;5077425;28;19963;-73
2021/09/23 10:36:21;;;;;;;;;;;16.90;99.90;;;;;;5076779;28;19987;-75
2021/09/23 10:38:48;;;;;;;;;;;17.00;99.90;;;;;;5093562;28;19924;-73
2021/09/23 10:41:15;;;;;;;;;;;17.00;99.90;;;;;;5082888;28;19924;-73
2021/09/23 10:43:42;;;;;;;;;;;17.10;99.90;;;;;;5056824;27;19932;-73
2021/09/23 10:46:10;;;;;;;;;;;17.30;99.90;;;;;;5094354;28;20022;-73
2021/09/23 10:48:48;;;;;;;;;;;17.30;99.90;;;;;;5077084;28;19931;-73
2021/09/23 10:51:21;;;;;;;;;;;17.40;99.90;;;;;;5074989;28;19924;-72
2021/09/23 10:54:00;;;;;;;;;;;17.50;99.90;;;;;;5096824;28;19924;-73
2021/09/23 10:56:34;;;;;;;;;;;17.60;99.90;;;;;;5080523;28;20406;-73
2021/09/23 10:59:07;;;;;;;;;;;17.60;99.90;;;;;;5112942;27;19923;-73
2021/09/23 11:01:39;;;;;;;;;;;17.70;99.90;;;;;;5116262;27;19923;-74
2021/09/23 11:04:11;;;;;;;;;;;17.60;99.90;;;;;;5116290;27;20360;-73
2021/09/23 11:06:40;;;;;;;;;;;17.70;99.90;;;;;;5116201;27;19924;-73
2021/09/23 11:09:15;;;;;;;;;;;17.80;99.90;;;;;;5116719;27;20312;-73
2021/09/23 11:11:44;;;;;;;;;;;17.90;99.90;;;;;;5116708;27;20386;-74
2021/09/23 11:14:17;;;;;;;;;;;17.90;99.90;;;;;;5100897;27;19923;-74
2021/09/23 11:16:48;;;;;;;;;;;18.00;99.90;;;;;;5117035;27;19923;-73
2021/09/23 11:19:23;;;;;;;;;;;18.00;99.90;;;;;;5101328;27;20266;-73
2021/09/23 11:21:56;;;;;;;;;;;18.00;99.90;;;;;;5100805;27;19924;-73
2021/09/23 11:24:26;;;;;;;;;;;18.10;99.90;;;;;;5116642;27;19935;-72
2021/09/23 11:26:53;;;;;;;;;;;18.20;99.90;;;;;;5116950;27;19935;-72
2021/09/23 11:29:21;;;;;;;;;;;18.20;99.90;;;;;;5116882;27;19984;-73
2021/09/23 11:31:55;;;;;;;;;;;18.30;99.90;;;;;;5116919;27;20030;-73
2021/09/23 11:34:30;;;;;;;;;;;18.30;99.90;;;;;;5100767;27;20052;-72
2021/09/23 11:36:59;;;;;;;;;;;18.40;99.90;;;;;;5117302;27;19974;-73
2021/09/23 11:39:37;;;;;;;;;;;18.50;99.90;;;;;;5101267;27;19923;-73
2021/09/23 11:42:08;;;;;;;;;;;18.60;99.90;;;;;;5135278;27;19930;-75
2021/09/23 11:44:35;;;;;;;;;;;18.60;99.90;;;;;;5116336;27;19930;-73
2021/09/23 11:47:02;;;;;;;;;;;18.60;99.90;;;;;;5116529;27;19938;-75
2021/09/23 11:49:30;;;;;;;;;;;18.70;99.90;;;;;;5116292;27;20309;-73
2021/09/23 11:51:57;;;;;;;;;;;18.80;99.90;;;;;;5116517;27;19931;-73
2021/09/23 11:54:29;;;;;;;;;;;18.90;99.90;;;;;;5115160;27;19931;-74
2021/09/23 11:57:01;;;;;;;;;;;18.90;99.90;;;;;;5099620;27;19938;-73
2021/09/23 11:59:35;;;;;;;;;;;19.00;99.90;;;;;;5116830;27;19930;-73
2021/09/23 12:02:07;;;;;;;;;;;18.90;99.90;;;;;;5117145;27;19930;-73
2021/09/23 12:04:35;;;;;;;;;;;19.00;99.90;;;;;;5099096;27;20179;-73
2021/09/23 12:07:07;;;;;;;;;;;19.10;99.90;;;;;;5099945;27;19924;-73
2021/09/23 12:09:58;;;;;;;;;;;19.00;99.90;;;;;;5099630;27;19924;-72
2021/09/23 12:12:29;;;;;;;;;;;19.10;99.90;;;;;;5116157;27;19976;-73
2021/09/23 12:15:01;;;;;;;;;;;19.10;99.90;;;;;;5099257;27;19923;-73
2021/09/23 12:17:33;;;;;;;;;;;19.10;99.90;;;;;;5116225;27;19927;-74
2021/09/23 12:20:06;;;;;;;;;;;19.20;99.90;;;;;;5099953;27;19923;-73
2021/09/23 12:22:34;;;;;;;;;;;19.30;99.90;;;;;;5116156;27;19934;-74
2021/09/23 12:25:15;;;;;;;;;;;19.50;99.90;;;;;;5105180;28;19923;-73
2021/09/23 12:27:41;;;;;;;;;;;19.50;99.90;;;;;;5095512;28;19924;-73
2021/09/23 12:30:23;;;;;;;;;;;19.60;99.90;;;;;;5095723;28;19930;-72
2021/09/23 12:33:02;;;;;;;;;;;19.70;99.90;;;;;;5095628;28;19924;-73
2021/09/23 12:35:35;;;;;;;;;;;19.70;99.90;;;;;;5079395;28;19931;-72
2021/09/23 12:38:09;;;;;;;;;;;19.80;99.90;;;;;;5094548;28;19924;-72
2021/09/23 12:40:55;;;;;;;;;;;19.90;99.90;;;;;;5078017;28;20386;-72
2021/09/23 12:43:33;;;;;;;;;;;19.90;99.90;;;;;;5094734;28;20306;-72
2021/09/23 12:46:10;;;;;;;;;;;20.10;99.90;;;;;;5077230;28;19963;-73
2021/09/23 12:48:37;;;;;;;;;;;20.00;99.90;;;;;;5078024;28;19924;-72
2021/09/23 12:51:10;;;;;;;;;;;20.10;99.90;;;;;;5078608;28;19924;-71
2021/09/23 12:53:41;;;;;;;;;;;20.10;99.90;;;;;;5078618;28;19924;-71
2021/09/23 12:56:23;;;;;;;;;;;20.00;99.90;;;;;;5094873;28;20271;-71
2021/09/23 12:59:14;;;;;;;;;;;20.00;99.90;;;;;;5094588;28;19938;-72
2021/09/23 13:01:48;;;;;;;;;;;20.00;99.90;;;;;;5078730;28;19924;-71
2021/09/23 13:04:24;;;;;;;;;;;20.10;99.90;;;;;;5078002;28;20059;-72
2021/09/23 13:06:52;;;;;;;;;;;19.90;99.90;;;;;;5077858;28;19930;-71
2021/09/23 13:09:24;;;;;;;;;;;19.90;99.90;;;;;;5094634;28;19927;-73
2021/09/23 13:12:14;;;;;;;;;;;20.00;99.90;;;;;;5078631;28;19930;-73
2021/09/23 13:15:34;;;;;;;;;;;20.00;99.90;;;;;;5093998;28;20405;-72
2021/09/23 13:18:14;;;;;;;;;;;20.10;99.90;;;;;;5060752;28;19928;-72
2021/09/23 13:20:59;;;;;;;;;;;20.20;99.90;;;;;;5094683;28;19931;-71
2021/09/23 13:23:42;;;;;;;;;;;20.30;99.90;;;;;;5094399;28;19924;-72
2021/09/23 13:26:20;;;;;;;;;;;20.20;99.90;;;;;;5078464;28;19924;-71
2021/09/23 13:29:04;;;;;;;;;;;20.20;99.90;;;;;;5080280;28;19927;-71
2021/09/23 13:31:34;;;;;;;;;;;20.20;99.90;;;;;;5094266;28;19977;-72
2021/09/23 13:34:02;;;;;;;;;;;20.40;99.90;;;;;;5077843;28;20344;-71
2021/09/23 13:36:34;;;;;;;;;;;20.50;99.90;;;;;;5078618;28;19927;-72
2021/09/23 13:39:09;;;;;;;;;;;20.60;99.90;;;;;;5078710;28;20276;-74
2021/09/23 13:41:40;;;;;;;;;;;20.60;99.90;;;;;;5094363;28;19924;-72
2021/09/23 13:44:30;;;;;;;;;;;20.60;99.90;;;;;;5112542;28;19930;-72
2021/09/23 13:47:03;;;;;;;;;;;20.80;99.90;;;;;;5094466;28;19931;-72
2021/09/23 13:49:36;;;;;;;;;;;20.80;99.90;;;;;;5078535;28;19973;-71
2021/09/23 13:52:08;;;;;;;;;;;20.90;99.90;;;;;;5094287;28;19994;-72
2021/09/23 13:54:47;;;;;;;;;;;20.90;99.90;;;;;;5093868;28;19924;-72
2021/09/23 13:57:14;;;;;;;;;;;20.90;99.90;;;;;;5107317;28;20401;-71
2021/09/23 13:59:43;;;;;;;;;;;20.90;99.90;;;;;;5077553;28;19931;-71
2021/09/23 14:02:14;;;;;;;;;;;21.00;99.90;;;;;;5112386;28;20412;-72
2021/09/23 14:04:42;;;;;;;;;;;21.00;99.90;;;;;;5093597;28;19985;-71
2021/09/23 14:07:14;;;;;;;;;;;21.00;99.90;;;;;;5076663;28;20275;-72
2021/09/23 14:09:42;;;;;;;;;;;21.00;99.90;;;;;;5077159;28;19931;-74
2021/09/23 14:12:36;;;;;;;;;;;21.10;99.90;;;;;;5085950;28;20410;-71
2021/09/23 14:15:23;;;;;;;;;;;21.00;99.90;;;;;;5079669;28;19994;-72
2021/09/23 14:17:51;;;;;;;;;;;21.10;99.90;;;;;;5096594;28;19955;-71
2021/09/23 14:20:23;;;;;;;;;;;21.10;99.90;;;;;;5098933;28;19924;-72
2021/09/23 14:22:56;;;;;;;;;;;21.20;99.90;;;;;;5098416;28;20432;-71
2021/09/23 14:25:23;;;;;;;;;;;21.10;99.90;;;;;;5081294;28;19924;-72
2021/09/23 14:27:50;;;;;;;;;;;21.20;99.90;;;;;;5081690;28;19924;-72
2021/09/23 14:30:23;;;;;;;;;;;21.30;99.90;;;;;;5098214;28;19924;-72
2021/09/23 14:32:50;;;;;;;;;;;21.40;99.90;;;;;;5098383;28;19978;-71
2021/09/23 14:35:22;;;;;;;;;;;21.40;99.90;;;;;;5116312;28;19931;-71
2021/09/23 14:37:53;;;;;;;;;;;21.50;99.90;;;;;;5082220;28;19924;-72
2021/09/23 14:40:32;;;;;;;;;;;21.50;99.90;;;;;;5098911;28;19927;-73
2021/09/23 14:42:58;;;;;;;;;;;21.60;99.90;;;;;;5081393;28;19958;-71
2021/09/23 14:45:30;;;;;;;;;;;21.90;99.90;;;;;;5097678;28;20348;-72
2021/09/23 14:47:57;;;;;;;;;;;22.00;99.90;;;;;;5116165;28;20301;-72
2021/09/23 14:50:24;;;;;;;;;;;22.10;99.90;;;;;;5115140;28;19923;-74
2021/09/23 14:52:55;;;;;;;;;;;22.10;99.90;;;;;;5081275;28;20703;-72